createdAt,value
2023-05-22T00:00:23.730Z,22.23
2023-05-22T00:02:51.150Z,21.85
2023-05-22T00:05:18.527Z,21.95
2023-05-22T00:07:45.787Z,21.57
2023-05-22T00:10:13.168Z,22.33
2023-05-22T00:12:41.923Z,21.60
2023-05-22T00:15:09.428Z,21.60
2023-05-22T00:17:36.621Z,22.08
2023-05-22T00:20:04.105Z,21.86
2023-05-22T00:22:31.249Z,22.21
2023-05-22T00:24:58.922Z,21.83
2023-05-22T00:27:26.404Z,22.12
2023-05-22T00:29:58.388Z,22.26
2023-05-22T00:32:25.645Z,22.39
2023-05-22T00:34:52.785Z,22.04
2023-05-22T00:37:20.531Z,22.31
2023-05-22T00:39:47.789Z,22.47
2023-05-22T00:42:14.876Z,22.42
2023-05-22T00:44:41.986Z,22.35
2023-05-22T00:47:10.631Z,21.91
2023-05-22T00:49:37.748Z,22.12
2023-05-22T00:52:05.770Z,23.28
2023-05-22T00:54:33.118Z,23.37
2023-05-22T00:57:00.384Z,23.37
2023-05-22T00:59:28.867Z,23.48
2023-05-22T01:01:56.555Z,23.80
2023-05-22T01:04:25.462Z,23.52
2023-05-22T01:06:53.377Z,23.86
2023-05-22T01:09:20.497Z,23.82
2023-05-22T01:11:51.519Z,23.83
2023-05-22T01:14:34.052Z,24.28
2023-05-22T01:17:04.942Z,24.35
2023-05-22T01:19:49.602Z,24.18
2023-05-22T01:22:24.033Z,24.37
2023-05-22T01:24:58.438Z,24.30
2023-05-22T01:27:43.144Z,24.35
2023-05-22T01:30:21.050Z,24.31
2023-05-22T01:32:50.306Z,24.80
2023-05-22T01:35:18.449Z,24.79
2023-05-22T01:37:45.698Z,24.52
2023-05-22T01:40:13.838Z,24.54
2023-05-22T01:42:40.987Z,24.83
2023-05-22T01:45:09.575Z,24.46
2023-05-22T01:47:36.823Z,24.91
2023-05-22T01:50:06.755Z,24.56
2023-05-22T01:52:38.267Z,24.51
2023-05-22T01:55:09.767Z,24.76
2023-05-22T01:57:42.501Z,24.79
2023-05-22T02:00:13.081Z,24.81
2023-05-22T02:02:49.881Z,24.76
2023-05-22T02:05:23.476Z,25.01
2023-05-22T02:07:50.952Z,24.75
2023-05-22T02:10:18.792Z,25.02
2023-05-22T02:12:46.210Z,24.82
2023-05-22T02:15:13.476Z,24.00
2023-05-22T02:17:42.262Z,24.60
2023-05-22T02:20:11.495Z,24.06
2023-05-22T02:22:43.546Z,24.08
2023-05-22T02:25:11.413Z,23.90
2023-05-22T02:27:38.640Z,24.10
2023-05-22T02:30:06.913Z,24.19
2023-05-22T02:32:34.286Z,24.56
2023-05-22T02:35:01.529Z,24.45
2023-05-22T02:37:33.836Z,24.11
2023-05-22T02:42:54.633Z,24.58
2023-05-22T02:45:22.322Z,24.06
2023-05-22T02:47:49.575Z,24.50
2023-05-22T02:50:16.979Z,24.50
2023-05-22T02:52:44.074Z,24.51
2023-05-22T02:55:12.844Z,23.89
2023-05-22T02:57:40.009Z,24.58
2023-05-22T03:00:07.889Z,23.53
2023-05-22T03:02:35.177Z,24.31
2023-05-22T03:05:02.390Z,23.71
2023-05-22T03:07:30.035Z,24.29
2023-05-22T03:09:57.146Z,24.30
2023-05-22T03:12:25.766Z,24.39
2023-05-22T03:14:52.943Z,24.71
2023-05-22T03:17:20.061Z,24.18
2023-05-22T03:19:48.177Z,24.86
2023-05-22T03:22:15.325Z,24.85
2023-05-22T03:24:42.516Z,23.90
2023-05-22T03:27:09.682Z,23.91
2023-05-22T03:29:41.835Z,24.12
2023-05-22T03:32:09.075Z,23.63
2023-05-22T03:34:36.789Z,23.75
2023-05-22T03:37:06.565Z,24.04
2023-05-22T03:39:35.685Z,23.45
2023-05-22T03:42:12.913Z,23.36
2023-05-22T03:44:41.478Z,23.57
2023-05-22T03:47:08.705Z,23.75
2023-05-22T03:49:35.815Z,23.68
2023-05-22T03:52:05.475Z,23.70
2023-05-22T03:54:32.602Z,23.77
2023-05-22T03:57:00.002Z,23.61
2023-05-22T03:59:27.121Z,23.20
2023-05-22T04:01:55.727Z,23.72
2023-05-22T04:04:23.888Z,22.61
2023-05-22T04:06:51.163Z,22.76
2023-05-22T04:09:18.354Z,22.77
2023-05-22T04:11:45.465Z,22.67
2023-05-22T04:14:12.725Z,23.36
2023-05-22T04:16:39.878Z,22.93
2023-05-22T04:19:08.573Z,23.13
2023-05-22T04:21:35.813Z,23.14
2023-05-22T04:24:03.697Z,22.72
2023-05-22T04:26:31.541Z,23.34
2023-05-22T04:28:58.673Z,23.80
2023-05-22T04:31:28.729Z,23.48
2023-05-22T04:33:56.094Z,23.54
2023-05-22T04:36:24.697Z,23.64
2023-05-22T04:38:52.329Z,23.08
2023-05-22T04:41:20.661Z,23.57
2023-05-22T04:43:51.743Z,23.88
2023-05-22T04:46:18.882Z,23.24
2023-05-22T04:48:46.017Z,22.90
2023-05-22T04:51:13.137Z,23.15
2023-05-22T04:53:42.074Z,23.89
2023-05-22T04:56:09.201Z,23.62
2023-05-22T04:58:36.392Z,23.23
2023-05-22T05:01:03.701Z,23.84
2023-05-22T05:03:30.891Z,23.75
2023-05-22T05:05:58.891Z,23.60
2023-05-22T05:08:26.778Z,23.60
2023-05-22T05:10:55.346Z,23.20
2023-05-22T05:13:23.373Z,24.21
2023-05-22T05:15:50.707Z,23.63
2023-05-22T05:18:20.164Z,22.88
2023-05-22T05:20:48.294Z,23.31
2023-05-22T05:23:15.489Z,22.82
2023-05-22T05:25:42.631Z,23.53
2023-05-22T05:28:11.837Z,23.22
2023-05-22T05:30:41.110Z,21.71
2023-05-22T05:33:28.749Z,22.83
2023-05-22T05:36:02.457Z,21.61
2023-05-22T05:38:29.914Z,21.50
2023-05-22T05:40:57.495Z,21.87
2023-05-22T05:43:26.199Z,22.33
2023-05-22T05:45:56.702Z,21.22
2023-05-22T05:48:24.026Z,20.67
2023-05-22T05:50:52.415Z,20.70
2023-05-22T05:53:20.144Z,20.94
2023-05-22T05:55:52.915Z,21.00
2023-05-22T05:58:21.129Z,20.32
2023-05-22T06:01:00.840Z,20.38
2023-05-22T06:03:28.221Z,21.15
2023-05-22T06:06:12.072Z,21.23
2023-05-22T06:08:57.757Z,21.71
2023-05-22T06:11:31.071Z,20.72
2023-05-22T06:13:58.367Z,20.55
2023-05-22T06:16:27.039Z,20.64
2023-05-22T06:18:54.542Z,20.28
2023-05-22T06:21:21.838Z,19.73
2023-05-22T06:23:49.664Z,20.14
2023-05-22T06:26:17.833Z,20.42
2023-05-22T06:28:46.636Z,20.00
2023-05-22T06:31:13.808Z,19.68
2023-05-22T06:33:46.078Z,19.31
2023-05-22T06:36:13.692Z,20.14
2023-05-22T06:38:40.913Z,20.07
2023-05-22T06:41:18.615Z,19.59
2023-05-22T06:43:46.663Z,19.13
2023-05-22T06:46:13.891Z,18.77
2023-05-22T06:48:41.789Z,18.88
2023-05-22T06:51:25.906Z,18.64
2023-05-22T06:54:01.827Z,18.71
2023-05-22T06:56:31.672Z,18.61
2023-05-22T06:59:05.355Z,18.59
2023-05-22T07:01:53.539Z,19.03
2023-05-22T07:04:33.746Z,19.14
2023-05-22T07:07:08.171Z,18.74
2023-05-22T07:09:35.526Z,18.94
2023-05-22T07:12:04.340Z,18.98
2023-05-22T07:14:32.156Z,18.93
2023-05-22T07:16:59.373Z,19.85
2023-05-22T07:19:32.283Z,19.98
2023-05-22T07:22:03.217Z,20.50
2023-05-22T07:24:34.493Z,19.67
2023-05-22T07:27:03.434Z,19.16
2023-05-22T07:29:30.834Z,18.60
2023-05-22T07:31:59.839Z,19.13
2023-05-22T07:34:29.558Z,18.85
2023-05-22T07:36:56.818Z,19.47
2023-05-22T07:39:24.111Z,20.36
2023-05-22T07:41:54.459Z,19.31
2023-05-22T07:44:22.821Z,18.76
2023-05-22T07:46:50.655Z,19.13
2023-05-22T07:49:21.304Z,17.90
2023-05-22T07:51:48.431Z,18.49
2023-05-22T07:54:16.941Z,17.57
2023-05-22T07:56:47.512Z,18.14
2023-05-22T07:59:18.335Z,17.79
2023-05-22T08:01:45.902Z,17.94
2023-05-22T08:04:13.254Z,18.13
2023-05-22T08:06:40.630Z,17.91
2023-05-22T08:09:07.771Z,18.48
2023-05-22T08:11:35.099Z,17.92
2023-05-22T08:14:02.224Z,18.48
2023-05-22T08:16:30.957Z,20.38
2023-05-22T08:18:58.782Z,18.73
2023-05-22T08:21:25.972Z,17.68
2023-05-22T08:23:53.094Z,17.93
2023-05-22T08:26:20.781Z,17.95
2023-05-22T08:28:48.515Z,18.44
2023-05-22T08:31:15.737Z,18.14
2023-05-22T08:33:44.361Z,17.29
2023-05-22T08:36:11.541Z,18.08
2023-05-22T08:38:38.959Z,17.51
2023-05-22T08:41:06.326Z,18.50
2023-05-22T08:43:33.521Z,18.17
2023-05-22T08:46:03.430Z,18.68
2023-05-22T08:48:31.913Z,17.77
2023-05-22T08:51:02.842Z,17.88
2023-05-22T08:53:31.674Z,18.01
2023-05-22T08:55:58.955Z,17.49
2023-05-22T08:58:26.368Z,18.15
2023-05-22T09:00:54.454Z,17.60
2023-05-22T09:03:22.025Z,18.42
2023-05-22T09:05:49.349Z,16.95
2023-05-22T09:08:20.819Z,17.88
2023-05-22T09:10:48.467Z,17.40
2023-05-22T09:13:24.591Z,16.98
2023-05-22T09:15:51.774Z,16.88
2023-05-22T09:18:19.114Z,17.63
2023-05-22T09:20:46.306Z,16.76
2023-05-22T09:23:13.677Z,17.72
2023-05-22T09:25:43.377Z,17.09
2023-05-22T09:28:11.441Z,16.86
2023-05-22T09:30:39.093Z,17.76
2023-05-22T09:33:07.064Z,16.99
2023-05-22T09:35:34.544Z,17.65
2023-05-22T09:38:01.786Z,17.65
2023-05-22T09:40:29.185Z,18.59
2023-05-22T09:42:57.725Z,18.36
2023-05-22T09:45:25.020Z,18.30
2023-05-22T09:47:52.337Z,17.97
2023-05-22T09:50:19.566Z,17.40
2023-05-22T09:52:47.964Z,17.87
2023-05-22T09:55:16.565Z,18.35
2023-05-22T09:57:44.460Z,18.16
2023-05-22T10:00:14.078Z,18.11
2023-05-22T10:02:43.065Z,18.61
2023-05-22T10:05:10.562Z,18.68
2023-05-22T10:07:43.212Z,21.26
2023-05-22T10:10:11.789Z,19.04
2023-05-22T10:12:41.631Z,19.42
2023-05-22T10:15:10.386Z,19.01
2023-05-22T10:17:39.901Z,18.46
2023-05-22T10:20:08.854Z,18.52
2023-05-22T10:22:36.840Z,18.72
2023-05-22T10:25:04.264Z,18.19
2023-05-22T10:27:31.423Z,18.46
2023-05-22T10:30:00.827Z,18.59
2023-05-22T10:32:33.884Z,18.79
2023-05-22T10:35:11.839Z,18.55
2023-05-22T10:37:49.016Z,18.40
2023-05-22T10:40:19.100Z,18.14
2023-05-22T10:42:46.288Z,17.39
2023-05-22T10:45:13.733Z,17.55
2023-05-22T10:47:41.549Z,18.42
2023-05-22T10:50:11.594Z,18.25
2023-05-22T10:52:39.385Z,17.55
2023-05-22T10:55:07.460Z,17.65
2023-05-22T10:57:35.086Z,17.56
2023-05-22T11:00:10.254Z,18.11
2023-05-22T11:02:39.054Z,18.12
2023-05-22T11:05:21.434Z,17.79
2023-05-22T11:07:50.602Z,17.82
2023-05-22T11:10:26.212Z,18.38
2023-05-22T11:13:03.058Z,17.65
2023-05-22T11:15:31.664Z,17.51
2023-05-22T11:18:02.418Z,16.69
2023-05-22T11:20:29.671Z,16.67
2023-05-22T11:22:59.337Z,17.07
2023-05-22T11:25:27.559Z,16.72
2023-05-22T11:27:55.263Z,16.64
2023-05-22T11:30:25.574Z,17.17
2023-05-22T11:32:52.929Z,17.72
2023-05-22T11:35:20.774Z,16.87
2023-05-22T11:37:49.015Z,16.53
2023-05-22T11:40:18.650Z,17.04
2023-05-22T11:42:46.281Z,16.70
2023-05-22T11:45:14.858Z,16.69
2023-05-22T11:47:44.060Z,16.69
2023-05-22T11:50:12.335Z,17.50
2023-05-22T11:52:41.739Z,16.28
2023-05-22T11:55:10.466Z,16.40
2023-05-22T11:57:39.177Z,16.16
2023-05-22T12:00:08.128Z,16.57
2023-05-22T12:02:44.908Z,16.47
2023-05-22T12:05:12.171Z,16.41
2023-05-22T12:07:39.404Z,16.77
2023-05-22T12:10:06.829Z,15.55
2023-05-22T12:12:34.480Z,15.95
2023-05-22T12:15:05.410Z,16.11
2023-05-22T12:17:32.569Z,16.16
2023-05-22T12:19:59.707Z,16.24
2023-05-22T12:22:26.810Z,16.03
2023-05-22T12:24:53.905Z,16.07
2023-05-22T12:27:21.058Z,16.23
2023-05-22T12:29:48.836Z,15.80
2023-05-22T12:32:21.976Z,16.41
2023-05-22T12:34:49.296Z,16.32
2023-05-22T12:37:23.004Z,15.99
2023-05-22T12:39:56.670Z,15.51
2023-05-22T12:42:23.939Z,15.74
2023-05-22T12:44:51.149Z,15.38
2023-05-22T12:47:19.972Z,15.45
2023-05-22T12:49:47.088Z,15.89
2023-05-22T12:52:14.575Z,16.21
2023-05-22T12:54:41.730Z,16.65
2023-05-22T12:57:09.070Z,16.56
2023-05-22T12:59:36.257Z,15.96
2023-05-22T13:02:04.151Z,15.95
2023-05-22T13:04:33.339Z,15.60
2023-05-22T13:07:00.536Z,15.57
2023-05-22T13:09:28.187Z,15.83
2023-05-22T13:11:55.630Z,15.91
2023-05-22T13:14:22.930Z,16.09
2023-05-22T13:16:50.168Z,15.97
2023-05-22T13:19:17.338Z,15.96
2023-05-22T13:21:46.282Z,16.04
2023-05-22T13:24:13.776Z,15.46
2023-05-22T13:26:43.119Z,15.97
2023-05-22T13:29:10.247Z,16.07
2023-05-22T13:31:37.596Z,16.08
2023-05-22T13:34:05.439Z,16.09
2023-05-22T13:36:33.156Z,16.25
2023-05-22T13:39:01.786Z,16.09
2023-05-22T13:41:29.532Z,16.10
2023-05-22T13:43:57.113Z,16.86
2023-05-22T13:46:24.583Z,18.07
2023-05-22T13:48:51.816Z,16.77
2023-05-22T13:51:19.134Z,17.97
2023-05-22T13:53:46.862Z,16.64
2023-05-22T13:56:15.817Z,17.76
2023-05-22T13:58:43.005Z,17.81
2023-05-22T14:01:10.338Z,16.97
2023-05-22T14:03:37.599Z,16.81
2023-05-22T14:06:05.108Z,17.45
2023-05-22T14:08:32.572Z,16.67
2023-05-22T14:10:59.689Z,17.27
2023-05-22T14:13:28.231Z,17.21
2023-05-22T14:15:55.536Z,17.77
2023-05-22T14:18:22.772Z,17.43
2023-05-22T14:20:50.534Z,17.35
2023-05-22T14:23:17.660Z,17.34
2023-05-22T14:25:45.321Z,17.33
2023-05-22T14:28:13.260Z,17.97
2023-05-22T14:30:42.661Z,17.95
2023-05-22T14:33:10.420Z,17.89
2023-05-22T14:35:37.745Z,18.61
2023-05-22T14:38:05.989Z,17.88
2023-05-22T14:40:33.726Z,18.71
2023-05-22T14:43:00.980Z,18.82
2023-05-22T14:45:28.708Z,19.26
2023-05-22T14:47:57.439Z,19.33
2023-05-22T14:50:24.757Z,18.97
2023-05-22T14:52:52.124Z,19.16
2023-05-22T14:55:19.246Z,20.03
2023-05-22T14:57:46.559Z,19.32
2023-05-22T15:00:14.215Z,19.12
2023-05-22T15:02:41.509Z,19.54
2023-05-22T15:05:10.668Z,19.10
2023-05-22T15:10:09.881Z,20.28
2023-05-22T15:12:37.248Z,20.14
2023-05-22T15:15:05.710Z,19.20
2023-05-22T15:17:33.451Z,19.87
2023-05-22T15:20:00.628Z,20.08
2023-05-22T15:22:29.801Z,19.05
2023-05-22T15:25:03.832Z,19.64
2023-05-22T15:27:31.328Z,19.93
2023-05-22T15:29:58.589Z,19.73
2023-05-22T15:32:26.263Z,19.87
2023-05-22T15:34:53.433Z,19.15
2023-05-22T15:37:21.048Z,19.79
2023-05-22T15:39:50.548Z,19.51
2023-05-22T15:42:17.729Z,18.99
2023-05-22T15:44:45.422Z,20.01
2023-05-22T15:47:14.445Z,19.18
2023-05-22T15:49:41.509Z,21.05
2023-05-22T15:52:08.725Z,19.83
2023-05-22T15:54:36.303Z,20.49
2023-05-22T15:57:05.873Z,20.81
2023-05-22T15:59:33.202Z,20.88
2023-05-22T16:02:00.709Z,21.13
2023-05-22T16:04:28.584Z,21.52
2023-05-22T16:06:56.238Z,21.01
2023-05-22T16:09:23.534Z,21.75
2023-05-22T16:11:50.673Z,21.27
2023-05-22T16:14:19.415Z,22.45
2023-05-22T16:16:46.631Z,21.54
2023-05-22T16:19:14.085Z,22.42
2023-05-22T16:21:41.218Z,21.94
2023-05-22T16:24:08.372Z,21.77
2023-05-22T16:26:35.662Z,21.64
2023-05-22T16:29:02.973Z,21.74
2023-05-22T16:31:31.584Z,21.86
2023-05-22T16:33:58.693Z,21.74
2023-05-22T16:36:27.260Z,21.92
2023-05-22T16:38:55.288Z,22.59
2023-05-22T16:41:22.582Z,22.71
2023-05-22T16:43:49.734Z,22.16
2023-05-22T16:46:17.218Z,22.20
2023-05-22T16:48:46.140Z,22.28
2023-05-22T16:51:13.288Z,22.68
2023-05-22T16:53:40.762Z,22.84
2023-05-22T16:56:08.662Z,23.95
2023-05-22T16:58:35.756Z,22.73
2023-05-22T17:01:03.255Z,23.84
2023-05-22T17:03:30.484Z,24.10
2023-05-22T17:05:59.380Z,24.73
2023-05-22T17:08:26.537Z,25.61
2023-05-22T17:10:53.660Z,24.87
2023-05-22T17:13:21.133Z,25.66
2023-05-22T17:15:48.615Z,25.86
2023-05-22T17:18:15.750Z,25.34
2023-05-22T17:20:42.984Z,25.16
2023-05-22T17:23:12.044Z,25.25
2023-05-22T17:25:39.922Z,25.24
2023-05-22T17:28:07.381Z,24.31
2023-05-22T17:30:34.506Z,24.57
2023-05-22T17:33:01.662Z,24.99
2023-05-22T17:35:29.132Z,25.59
2023-05-22T17:37:57.272Z,24.89
2023-05-22T17:40:39.960Z,25.34
2023-05-22T17:43:12.061Z,25.33
2023-05-22T17:45:40.801Z,24.95
2023-05-22T17:48:08.732Z,26.14
2023-05-22T17:50:35.847Z,25.67
2023-05-22T17:53:03.336Z,25.57
2023-05-22T17:55:32.209Z,25.17
2023-05-22T17:57:59.705Z,25.72
2023-05-22T18:00:27.967Z,25.47
2023-05-22T18:02:55.806Z,26.12
2023-05-22T18:05:23.469Z,25.93
2023-05-22T18:07:51.819Z,26.27
2023-05-22T18:10:19.604Z,25.86
2023-05-22T18:12:49.858Z,26.04
2023-05-22T18:15:18.018Z,25.69
2023-05-22T18:17:45.697Z,26.12
2023-05-22T18:20:13.489Z,26.46
2023-05-22T18:22:41.284Z,26.36
2023-05-22T18:25:09.438Z,26.56
2023-05-22T18:27:36.586Z,25.98
2023-05-22T18:30:07.092Z,26.32
2023-05-22T18:32:35.010Z,26.24
2023-05-22T18:35:02.164Z,26.03
2023-05-22T18:37:29.442Z,26.04
2023-05-22T18:39:56.566Z,26.66
2023-05-22T18:42:23.653Z,26.64
2023-05-22T18:44:50.792Z,26.22
2023-05-22T18:47:19.457Z,26.27
2023-05-22T18:49:47.157Z,25.54
2023-05-22T18:52:14.964Z,25.52
2023-05-22T18:54:42.705Z,26.10
2023-05-22T18:57:10.372Z,26.65
2023-05-22T18:59:38.016Z,26.43
2023-05-22T19:02:05.508Z,25.68
2023-05-22T19:04:34.200Z,26.68
2023-05-22T19:07:01.401Z,26.76
2023-05-22T19:09:28.801Z,26.99
2023-05-22T19:11:55.948Z,26.48
2023-05-22T19:14:23.073Z,26.60
2023-05-22T19:16:50.293Z,27.10
2023-05-22T19:19:18.115Z,26.58
2023-05-22T19:21:46.928Z,26.57
2023-05-22T19:24:14.555Z,26.60
2023-05-22T19:26:41.757Z,26.52
2023-05-22T19:29:09.069Z,26.85
2023-05-22T19:31:36.347Z,26.68
2023-05-22T19:34:03.962Z,26.88
2023-05-22T19:36:31.137Z,26.32
2023-05-22T19:39:00.158Z,26.70
2023-05-22T19:41:27.305Z,26.47
2023-05-22T19:43:54.477Z,26.16
2023-05-22T19:46:21.821Z,26.83
2023-05-22T19:48:48.965Z,26.77
2023-05-22T19:51:16.225Z,25.89
2023-05-22T19:53:44.213Z,25.69
2023-05-22T19:56:13.455Z,25.62
2023-05-22T19:58:40.974Z,25.24
2023-05-22T20:01:08.159Z,24.47
2023-05-22T20:03:35.612Z,23.60
2023-05-22T20:06:03.233Z,23.31
2023-05-22T20:08:30.404Z,23.97
2023-05-22T20:10:57.563Z,23.52
2023-05-22T20:13:26.293Z,23.70
2023-05-22T20:15:53.952Z,23.83
2023-05-22T20:18:21.745Z,23.77
2023-05-22T20:20:49.007Z,23.69
2023-05-22T20:23:16.344Z,23.61
2023-05-22T20:25:43.572Z,23.43
2023-05-22T20:28:11.307Z,23.39
2023-05-22T20:30:40.266Z,23.66
2023-05-22T20:33:08.215Z,23.21
2023-05-22T20:35:35.897Z,23.32
2023-05-22T20:38:03.623Z,23.17
2023-05-22T20:40:31.968Z,23.62
2023-05-22T20:42:59.936Z,22.85
2023-05-22T20:45:27.501Z,23.34
2023-05-22T20:47:56.686Z,23.48
2023-05-22T20:50:24.800Z,23.54
2023-05-22T20:52:53.265Z,22.63
2023-05-22T20:55:20.376Z,23.56
2023-05-22T20:57:48.355Z,22.66
2023-05-22T21:00:16.389Z,23.17
2023-05-22T21:02:43.565Z,22.67
2023-05-22T21:05:12.134Z,23.49
2023-05-22T21:07:39.875Z,22.71
2023-05-22T21:10:08.295Z,22.67
2023-05-22T21:12:36.103Z,22.73
2023-05-22T21:15:04.219Z,22.92
2023-05-22T21:17:31.469Z,23.27
2023-05-22T21:19:58.701Z,22.96
2023-05-22T21:22:27.447Z,22.73
2023-05-22T21:24:54.770Z,22.88
2023-05-22T21:27:22.112Z,22.62
2023-05-22T21:29:49.395Z,23.27
2023-05-22T21:32:16.763Z,23.14
2023-05-22T21:34:44.407Z,23.54
2023-05-22T21:37:11.618Z,22.79
2023-05-22T21:39:40.338Z,22.99
2023-05-22T21:42:07.795Z,22.74
2023-05-22T21:44:35.562Z,23.23
2023-05-22T21:47:03.816Z,23.59
2023-05-22T21:49:31.031Z,23.25
2023-05-22T21:51:58.103Z,23.66
2023-05-22T21:54:26.269Z,23.79
2023-05-22T21:56:54.857Z,23.18
2023-05-22T21:59:21.996Z,23.81
2023-05-22T22:01:49.304Z,22.92
2023-05-22T22:04:17.103Z,22.83
2023-05-22T22:06:44.294Z,22.89
2023-05-22T22:09:11.920Z,22.80
2023-05-22T22:11:39.051Z,23.35
2023-05-22T22:14:07.690Z,23.69
2023-05-22T22:16:36.106Z,23.37
2023-05-22T22:19:04.003Z,23.11
2023-05-22T22:21:31.283Z,23.33
2023-05-22T22:23:58.888Z,23.16
2023-05-22T22:26:26.048Z,23.36
2023-05-22T22:28:53.159Z,23.37
2023-05-22T22:31:21.853Z,23.26
2023-05-22T22:33:49.022Z,24.02
2023-05-22T22:36:16.144Z,23.87
2023-05-22T22:38:43.311Z,23.49
2023-05-22T22:41:10.413Z,23.49
2023-05-22T22:43:37.530Z,23.93
2023-05-22T22:46:04.788Z,23.43
2023-05-22T22:48:33.401Z,24.58
2023-05-22T22:51:00.752Z,23.87
2023-05-22T22:53:27.977Z,24.34
2023-05-22T22:55:55.484Z,24.34
2023-05-22T22:58:23.302Z,24.93
2023-05-22T23:00:50.435Z,24.12
2023-05-22T23:03:18.274Z,24.96
2023-05-22T23:05:46.957Z,24.75
2023-05-22T23:08:14.178Z,25.34
2023-05-22T23:10:41.366Z,24.93
2023-05-22T23:13:08.984Z,24.97
2023-05-22T23:15:36.189Z,24.87
2023-05-22T23:18:03.396Z,25.13
2023-05-22T23:20:30.534Z,25.16
2023-05-22T23:22:59.409Z,24.47
2023-05-22T23:25:26.546Z,24.85
2023-05-22T23:27:53.747Z,24.50
2023-05-22T23:30:21.329Z,24.53
2023-05-22T23:32:48.519Z,24.94
2023-05-22T23:35:16.003Z,24.59
2023-05-22T23:37:43.641Z,25.40
2023-05-22T23:40:12.969Z,24.69
2023-05-22T23:42:40.348Z,25.29
2023-05-22T23:45:08.065Z,25.08
2023-05-22T23:47:35.712Z,24.81
2023-05-22T23:50:02.856Z,24.70
2023-05-22T23:52:29.960Z,25.81
2023-05-22T23:54:57.161Z,25.22
2023-05-22T23:57:25.757Z,25.30
2023-05-22T23:59:52.915Z,25.76
